Time,TemperatureF,DewpointF,PressureIn,WindDirection,WindDirectionDegrees,WindSpeedMPH,WindSpeedGustMPH,Humidity,HourlyPrecipIn,Conditions,Clouds,dailyrainin,SoftwareType,DateUTC
2013-09-08 00:01:00,62.1,58.5,29.70,South,180,1.1,-999.0,88,-99.99,,,0.00,Acu-Link.com,2013-09-08 04:01:00,
2013-09-08 00:16:00,62.1,58.8,29.71,SW,225,0.0,-999.0,89,-99.99,,,0.00,Acu-Link.com,2013-09-08 04:16:00,
2013-09-08 00:32:00,62.2,58.6,29.70,SW,225,0.0,-999.0,88,-99.99,,,0.00,Acu-Link.com,2013-09-08 04:32:00,
2013-09-08 00:47:00,62.2,58.6,29.70,SW,225,0.0,-999.0,88,-99.99,,,0.00,Acu-Link.com,2013-09-08 04:47:00,
2013-09-08 01:02:00,62.2,58.3,29.70,SW,225,0.0,-999.0,87,-99.99,,,0.00,Acu-Link.com,2013-09-08 05:02:00,
2013-09-08 01:17:00,62.1,58.5,29.69,SW,225,0.0,-999.0,88,-99.99,,,0.00,Acu-Link.com,2013-09-08 05:17:00,
2013-09-08 01:32:00,62.1,58.5,29.69,SSW,202,0.0,-999.0,88,-99.99,,,0.00,Acu-Link.com,2013-09-08 05:32:00,
2013-09-08 01:48:00,62.2,58.3,29.69,SW,225,0.0,-999.0,87,-99.99,,,0.00,Acu-Link.com,2013-09-08 05:48:00,
2013-09-08 02:03:00,62.4,58.2,29.69,SSW,202,1.7,-999.0,86,-99.99,,,0.00,Acu-Link.com,2013-09-08 06:03:00,
2013-09-08 02:18:00,62.4,57.5,29.68,West,270,1.1,-999.0,84,-99.99,,,0.00,Acu-Link.com,2013-09-08 06:18:00,
2013-09-08 02:33:00,62.8,57.6,29.68,WSW,247,2.2,-999.0,83,-99.99,,,0.00,Acu-Link.com,2013-09-08 06:33:00,
2013-09-08 02:48:00,61.9,57.7,29.67,SW,225,0.0,-999.0,86,-99.99,,,0.00,Acu-Link.com,2013-09-08 06:48:00,
2013-09-08 03:04:00,60.8,57.5,29.65,SW,225,0.0,-999.0,89,-99.99,,,0.01,Acu-Link.com,2013-09-08 07:04:00,
2013-09-08 03:19:00,60.6,57.6,29.65,SW,225,0.0,-999.0,90,-99.99,,,0.01,Acu-Link.com,2013-09-08 07:19:00,
2013-09-08 03:34:00,60.6,57.6,29.65,WNW,292,1.7,-999.0,90,-99.99,,,0.01,Acu-Link.com,2013-09-08 07:34:00,
2013-09-08 03:49:00,61.2,57.9,29.64,WSW,247,3.7,-999.0,89,-99.99,,,0.01,Acu-Link.com,2013-09-08 07:49:00,
2013-09-08 04:06:00,60.8,57.8,29.64,WSW,247,0.0,-999.0,90,-99.99,,,0.01,Acu-Link.com,2013-09-08 08:06:00,
2013-09-08 04:21:00,60.8,57.8,29.64,WSW,247,2.2,-999.0,90,-99.99,,,0.01,Acu-Link.com,2013-09-08 08:21:00,
2013-09-08 04:36:00,61.0,57.4,29.64,WSW,247,1.1,-999.0,88,-99.99,,,0.01,Acu-Link.com,2013-09-08 08:36:00,
2013-09-08 04:51:00,61.0,57.1,29.64,WSW,247,0.0,-999.0,87,-99.99,,,0.01,Acu-Link.com,2013-09-08 08:51:00,
2013-09-08 05:06:00,61.2,57.6,29.63,West,270,0.0,-999.0,88,-99.99,,,0.01,Acu-Link.com,2013-09-08 09:06:00,
2013-09-08 05:22:00,60.8,57.5,29.62,SW,225,0.0,-999.0,89,-99.99,,,0.01,Acu-Link.com,2013-09-08 09:22:00,
2013-09-08 05:37:00,60.4,57.1,29.62,SW,225,0.0,-999.0,89,-99.99,,,0.01,Acu-Link.com,2013-09-08 09:37:00,
2013-09-08 05:52:00,59.9,57.0,29.62,SSW,202,0.0,-999.0,90,-99.99,,,0.01,Acu-Link.com,2013-09-08 09:52:00,
2013-09-08 06:07:00,59.5,56.6,29.62,WSW,247,2.7,-999.0,90,-99.99,,,0.01,Acu-Link.com,2013-09-08 10:07:00,
2013-09-08 06:23:00,60.3,56.7,29.62,West,270,0.0,-999.0,88,-99.99,,,0.01,Acu-Link.com,2013-09-08 10:23:00,
2013-09-08 06:38:00,60.8,57.2,29.62,SW,225,1.7,-999.0,88,-99.99,,,0.01,Acu-Link.com,2013-09-08 10:38:00,
2013-09-08 06:53:00,61.2,57.0,29.61,SSW,202,4.2,-999.0,86,-99.99,,,0.01,Acu-Link.com,2013-09-08 10:53:00,
2013-09-08 07:08:00,61.2,56.7,29.62,WSW,247,2.7,-999.0,85,-99.99,,,0.01,Acu-Link.com,2013-09-08 11:08:00,
2013-09-08 07:23:00,62.2,57.3,29.62,West,270,0.0,-999.0,84,-99.99,,,0.01,Acu-Link.com,2013-09-08 11:23:00,
2013-09-08 07:39:00,63.7,58.1,29.61,SSW,202,1.7,-999.0,82,-99.99,,,0.01,Acu-Link.com,2013-09-08 11:39:00,
2013-09-08 07:54:00,64.8,58.5,29.61,SW,225,1.7,-999.0,80,-99.99,,,0.01,Acu-Link.com,2013-09-08 11:54:00,
2013-09-08 08:09:00,66.6,58.8,29.61,SSE,157,2.7,-999.0,76,-99.99,,,0.01,Acu-Link.com,2013-09-08 12:09:00,
2013-09-08 08:24:00,66.4,59.0,29.61,West,270,4.2,-999.0,77,-99.99,,,0.01,Acu-Link.com,2013-09-08 12:24:00,
2013-09-08 08:39:00,67.1,58.9,29.62,SSW,202,2.7,-999.0,75,-99.99,,,0.01,Acu-Link.com,2013-09-08 12:39:00,
2013-09-08 08:55:00,68.7,59.7,29.62,West,270,4.2,-999.0,73,-99.99,,,0.01,Acu-Link.com,2013-09-08 12:55:00,
2013-09-08 09:10:00,70.3,60.0,29.61,WSW,247,3.2,-999.0,70,-99.99,,,0.01,Acu-Link.com,2013-09-08 13:10:00,
2013-09-08 09:25:00,69.3,59.9,29.61,WSW,247,5.3,-999.0,72,-99.99,,,0.01,Acu-Link.com,2013-09-08 13:25:00,
2013-09-08 09:40:00,71.1,60.4,29.61,SW,225,3.7,-999.0,69,-99.99,,,0.01,Acu-Link.com,2013-09-08 13:40:00,
2013-09-08 09:56:00,72.5,61.3,29.60,West,270,2.7,-999.0,68,-99.99,,,0.01,Acu-Link.com,2013-09-08 13:56:00,
2013-09-08 10:11:00,73.4,60.9,29.59,WNW,292,4.7,-999.0,65,-99.99,,,0.01,Acu-Link.com,2013-09-08 14:11:00,
2013-09-08 10:26:00,74.7,61.3,29.61,WNW,292,9.9,-999.0,63,-99.99,,,0.01,Acu-Link.com,2013-09-08 14:26:00,
2013-09-08 10:41:00,71.8,60.2,29.61,WNW,292,2.7,-999.0,67,-99.99,,,0.01,Acu-Link.com,2013-09-08 14:41:00,
2013-09-08 10:56:00,74.1,60.7,29.60,West,270,5.3,-999.0,63,-99.99,,,0.01,Acu-Link.com,2013-09-08 14:56:00,
2013-09-08 11:12:00,72.5,60.1,29.60,WSW,247,7.3,-999.0,65,-99.99,,,0.01,Acu-Link.com,2013-09-08 15:12:00,
2013-09-08 11:27:00,71.6,59.6,29.61,West,270,3.2,-999.0,66,-99.99,,,0.01,Acu-Link.com,2013-09-08 15:27:00,
2013-09-08 11:43:00,71.1,59.6,29.60,East,90,4.2,-999.0,67,-99.99,,,0.01,Acu-Link.com,2013-09-08 15:43:00,
2013-09-08 11:58:00,69.1,58.1,29.61,NE,45,6.3,-999.0,68,-99.99,,,0.01,Acu-Link.com,2013-09-08 15:58:00,
2013-09-08 12:13:00,69.6,56.4,29.63,ENE,67,5.8,-999.0,63,-99.99,,,0.01,Acu-Link.com,2013-09-08 16:13:00,
2013-09-08 12:28:00,70.7,56.1,29.63,West,270,8.9,-999.0,60,-99.99,,,0.01,Acu-Link.com,2013-09-08 16:28:00,
2013-09-08 12:43:00,71.6,56.0,29.63,WNW,292,6.8,-999.0,58,-99.99,,,0.01,Acu-Link.com,2013-09-08 16:43:00,
2013-09-08 12:59:00,71.8,55.2,29.64,West,270,6.8,-999.0,56,-99.99,,,0.01,Acu-Link.com,2013-09-08 16:59:00,
2013-09-08 13:14:00,72.0,53.4,29.65,WSW,247,6.3,-999.0,52,-99.99,,,0.01,Acu-Link.com,2013-09-08 17:14:00,
2013-09-08 13:29:00,73.2,48.1,29.65,West,270,5.8,-999.0,41,-99.99,,,0.01,Acu-Link.com,2013-09-08 17:29:00,
2013-09-08 13:44:00,71.6,46.6,29.66,WNW,292,5.3,-999.0,41,-99.99,,,0.01,Acu-Link.com,2013-09-08 17:44:00,
2013-09-08 14:00:00,71.8,46.8,29.67,WNW,292,11.4,-999.0,41,-99.99,,,0.01,Acu-Link.com,2013-09-08 18:00:00,
2013-09-08 14:15:00,71.6,46.0,29.66,NNE,22,7.3,-999.0,40,-99.99,,,0.01,Acu-Link.com,2013-09-08 18:15:00,
2013-09-08 14:31:00,72.0,45.7,29.66,NW,315,6.8,-999.0,39,-99.99,,,0.01,Acu-Link.com,2013-09-08 18:31:00,
2013-09-08 14:46:00,71.6,43.9,29.68,ESE,112,6.8,-999.0,37,-99.99,,,0.01,Acu-Link.com,2013-09-08 18:46:00,
2013-09-08 15:01:00,70.9,44.0,29.68,ESE,112,7.3,-999.0,38,-99.99,,,0.01,Acu-Link.com,2013-09-08 19:01:00,
2013-09-08 15:17:00,70.7,43.8,29.69,SW,225,2.2,-999.0,38,-99.99,,,0.01,Acu-Link.com,2013-09-08 19:17:00,
2013-09-08 15:33:00,70.7,44.5,29.70,WNW,292,10.9,-999.0,39,-99.99,,,0.01,Acu-Link.com,2013-09-08 19:33:00,
2013-09-08 15:48:00,69.6,42.2,29.69,SSW,202,9.9,-999.0,37,-99.99,,,0.01,Acu-Link.com,2013-09-08 19:48:00,
2013-09-08 16:03:00,68.2,41.6,29.71,NW,315,6.3,-999.0,38,-99.99,,,0.01,Acu-Link.com,2013-09-08 20:03:00,
2013-09-08 16:19:00,68.4,41.1,29.71,WNW,292,6.3,-999.0,37,-99.99,,,0.01,Acu-Link.com,2013-09-08 20:19:00,
2013-09-08 16:35:00,67.5,41.0,29.72,ESE,112,3.7,-999.0,38,-99.99,,,0.01,Acu-Link.com,2013-09-08 20:35:00,
2013-09-08 16:51:00,67.6,42.4,29.73,West,270,4.7,-999.0,40,-99.99,,,0.01,Acu-Link.com,2013-09-08 20:51:00,
2013-09-08 17:06:00,67.1,41.3,29.74,West,270,5.3,-999.0,39,-99.99,,,0.01,Acu-Link.com,2013-09-08 21:06:00,
2013-09-08 17:22:00,65.1,41.4,29.76,West,270,2.7,-999.0,42,-99.99,,,0.01,Acu-Link.com,2013-09-08 21:22:00,
2013-09-08 17:38:00,64.2,41.8,29.76,SSE,157,3.2,-999.0,44,-99.99,,,0.01,Acu-Link.com,2013-09-08 21:38:00,
2013-09-08 17:53:00,63.5,40.6,29.77,WNW,292,2.2,-999.0,43,-99.99,,,0.01,Acu-Link.com,2013-09-08 21:53:00,
2013-09-08 18:08:00,62.8,41.1,29.77,NNE,22,6.3,-999.0,45,-99.99,,,0.01,Acu-Link.com,2013-09-08 22:08:00,
2013-09-08 18:24:00,62.1,39.9,29.79,West,270,3.7,-999.0,44,-99.99,,,0.01,Acu-Link.com,2013-09-08 22:24:00,
2013-09-08 18:39:00,61.2,40.3,29.79,West,270,2.7,-999.0,46,-99.99,,,0.01,Acu-Link.com,2013-09-08 22:39:00,
2013-09-08 18:54:00,60.1,40.3,29.79,West,270,5.3,-999.0,48,-99.99,,,0.01,Acu-Link.com,2013-09-08 22:54:00,
2013-09-08 19:09:00,59.4,40.8,29.80,NNE,22,5.8,-999.0,50,-99.99,,,0.01,Acu-Link.com,2013-09-08 23:09:00,
2013-09-08 19:24:00,58.6,40.0,29.81,ESE,112,2.7,-999.0,50,-99.99,,,0.01,Acu-Link.com,2013-09-08 23:24:00,
2013-09-08 19:39:00,57.6,41.1,29.83,West,270,0.0,-999.0,54,-99.99,,,0.01,Acu-Link.com,2013-09-08 23:39:00,
2013-09-08 19:55:00,56.7,41.2,29.85,SW,225,2.2,-999.0,56,-99.99,,,0.01,Acu-Link.com,2013-09-08 23:55:00,
2013-09-08 20:10:00,57.4,40.4,29.85,ESE,112,4.2,-999.0,53,-99.99,,,0.01,Acu-Link.com,2013-09-09 00:10:00,
2013-09-08 20:25:00,56.8,40.3,29.86,ESE,112,2.7,-999.0,54,-99.99,,,0.01,Acu-Link.com,2013-09-09 00:25:00,
2013-09-08 20:40:00,55.4,40.9,29.87,West,270,2.7,-999.0,58,-99.99,,,0.01,Acu-Link.com,2013-09-09 00:40:00,
2013-09-08 20:55:00,55.8,40.8,29.88,SSE,157,2.2,-999.0,57,-99.99,,,0.01,Acu-Link.com,2013-09-09 00:55:00,
2013-09-08 21:11:00,55.4,40.4,29.90,WNW,292,1.1,-999.0,57,-99.99,,,0.01,Acu-Link.com,2013-09-09 01:11:00,
2013-09-08 21:26:00,54.7,40.2,29.90,SSE,157,1.7,-999.0,58,-99.99,,,0.01,Acu-Link.com,2013-09-09 01:26:00,
2013-09-08 21:41:00,53.8,40.2,29.91,WSW,247,1.7,-999.0,60,-99.99,,,0.01,Acu-Link.com,2013-09-09 01:41:00,
2013-09-08 21:56:00,53.2,40.9,29.91,ESE,112,2.2,-999.0,63,-99.99,,,0.01,Acu-Link.com,2013-09-09 01:56:00,
2013-09-08 22:11:00,52.0,41.0,29.91,WSW,247,1.7,-999.0,66,-99.99,,,0.01,Acu-Link.com,2013-09-09 02:11:00,
2013-09-08 22:27:00,50.9,40.7,29.92,SSW,202,0.0,-999.0,68,-99.99,,,0.01,Acu-Link.com,2013-09-09 02:27:00,
2013-09-08 22:42:00,50.0,41.7,29.93,South,180,0.0,-999.0,73,-99.99,,,0.01,Acu-Link.com,2013-09-09 02:42:00,
2013-09-08 22:57:00,48.6,42.4,29.94,West,270,1.7,-999.0,79,-99.99,,,0.01,Acu-Link.com,2013-09-09 02:57:00,
2013-09-08 23:12:00,49.6,40.9,29.94,West,270,2.2,-999.0,72,-99.99,,,0.01,Acu-Link.com,2013-09-09 03:12:00,
2013-09-08 23:28:00,51.1,40.1,29.95,ESE,112,1.7,-999.0,66,-99.99,,,0.01,Acu-Link.com,2013-09-09 03:28:00,
2013-09-08 23:43:00,50.0,40.6,29.96,West,270,1.7,-999.0,70,-99.99,,,0.01,Acu-Link.com,2013-09-09 03:43:00,
2013-09-08 23:58:00,50.9,41.1,29.97,South,180,1.7,-999.0,69,-99.99,,,0.01,Acu-Link.com,2013-09-09 03:58:00,